KAPG/APG METAR and TAF weather

Enter ICAO airport designator
Station Type Date Time Source
KAPG METAR 2023/02/03 21:58 UTC NOAA

KAPG 032158Z 30012G22KT 7SM SCT065 M04/M20 A3026 RMK LAST SLP251 T10411201 $


Station Type Date Time Source
KAPG Decoded METAR 2023/02/03 21:58 UTC NOAA

Phillips Army Air Field / Aberdeen, MD, United States (KAPG) 39-28N 076-10W
Feb 03, 2023 - 04:58 PM EST / 2023.02.03 2158 UTC
Wind: from the WNW (300 degrees) at 14 MPH (12 KT) gusting to 25 MPH (22 KT):0
Visibility: 7 mile(s):0
Sky conditions: partly cloudy
Temperature: 24.6 F (-4.1 C)
Windchill: 12 F (-11 C):1
Dew Point: -4.2 F (-20.1 C)
Relative Humidity: 27%
Pressure (altimeter): 30.26 in. Hg (1024 hPa)
ob: KAPG 032158Z 30012G22KT 7SM SCT065 M04/M20 A3026 RMK LAST SLP251 T10411201
cycle: 22

Station Type Date Time Source
KAPG TAF UTC NOAA

Error!

Example: see airport list